createdAt,value
2022-07-29T00:00:26.117Z,17.43
2022-07-29T00:01:26.114Z,17.43
2022-07-29T00:02:26.156Z,17.42
2022-07-29T00:03:26.165Z,17.40
2022-07-29T00:04:26.153Z,17.42
2022-07-29T00:05:26.035Z,17.46
2022-07-29T00:06:26.033Z,17.45
2022-07-29T00:07:26.024Z,17.43
2022-07-29T00:08:26.035Z,17.40
2022-07-29T00:09:25.985Z,17.38
2022-07-29T00:10:25.970Z,17.35
2022-07-29T00:11:25.963Z,17.30
2022-07-29T00:12:26.726Z,17.28
2022-07-29T00:13:32.590Z,17.25
2022-07-29T00:14:26.918Z,17.24
2022-07-29T00:15:25.901Z,17.21
2022-07-29T00:16:25.998Z,17.20
2022-07-29T00:17:25.897Z,17.17
2022-07-29T00:18:25.885Z,17.15
2022-07-29T00:19:25.845Z,17.17
2022-07-29T00:20:25.836Z,17.17
2022-07-29T00:21:25.856Z,17.14
2022-07-29T00:22:25.815Z,17.14
2022-07-29T00:23:25.817Z,17.14
2022-07-29T00:24:25.801Z,17.12
2022-07-29T00:25:25.770Z,17.10
2022-07-29T00:26:25.761Z,17.09
2022-07-29T00:27:25.747Z,17.09
2022-07-29T00:28:25.745Z,17.07
2022-07-29T00:29:34.353Z,17.07
2022-07-29T00:30:26.703Z,17.07
2022-07-29T00:31:25.746Z,17.06
2022-07-29T00:32:25.677Z,17.06
2022-07-29T00:33:25.663Z,17.06
2022-07-29T00:34:25.662Z,17.06
2022-07-29T00:35:25.633Z,17.07
2022-07-29T00:36:25.625Z,17.06
2022-07-29T00:37:25.602Z,17.07
2022-07-29T00:38:25.638Z,17.09
2022-07-29T00:39:25.608Z,17.07
2022-07-29T00:40:25.563Z,17.07
2022-07-29T00:41:25.543Z,17.07
2022-07-29T00:42:25.545Z,17.06
2022-07-29T00:43:25.533Z,17.05
2022-07-29T00:44:25.514Z,17.09
2022-07-29T00:45:25.496Z,17.07
2022-07-29T00:46:25.530Z,17.07
2022-07-29T00:47:25.475Z,17.06
2022-07-29T00:48:25.470Z,17.06
2022-07-29T00:49:25.514Z,17.05
2022-07-29T00:50:25.440Z,17.03
2022-07-29T00:51:25.417Z,17.02
2022-07-29T00:52:25.408Z,17.00
2022-07-29T00:53:25.393Z,16.98
2022-07-29T00:54:25.373Z,16.96
2022-07-29T00:55:25.375Z,16.95
2022-07-29T00:56:25.357Z,16.96
2022-07-29T00:57:25.344Z,16.98
2022-07-29T00:58:25.322Z,16.98
2022-07-29T00:59:25.303Z,16.96
2022-07-29T01:00:26.365Z,16.95
2022-07-29T01:01:25.325Z,16.92
2022-07-29T01:02:25.394Z,16.92
2022-07-29T01:03:25.253Z,16.90
2022-07-29T01:04:25.243Z,16.88
2022-07-29T01:05:25.231Z,16.85
2022-07-29T01:06:26.238Z,16.84
2022-07-29T01:07:25.214Z,16.87
2022-07-29T01:08:25.196Z,16.87
2022-07-29T01:09:41.986Z,16.90
2022-07-29T01:10:26.177Z,16.90
2022-07-29T01:11:25.143Z,16.88
2022-07-29T01:12:25.143Z,16.87
2022-07-29T01:13:25.127Z,16.85
2022-07-29T01:14:25.129Z,16.85
2022-07-29T01:15:25.106Z,16.84
2022-07-29T01:16:25.116Z,16.81
2022-07-29T01:17:25.082Z,16.80
2022-07-29T01:18:25.051Z,16.78
2022-07-29T01:19:25.041Z,16.78
2022-07-29T01:20:25.034Z,16.78
2022-07-29T01:21:26.063Z,16.75
2022-07-29T01:22:25.063Z,16.73
2022-07-29T01:23:24.984Z,16.72
2022-07-29T01:24:24.984Z,16.72
2022-07-29T01:25:24.962Z,16.70
2022-07-29T01:26:24.960Z,16.67
2022-07-29T01:27:24.956Z,16.69
2022-07-29T01:28:24.913Z,16.66
2022-07-29T01:29:24.905Z,16.66
2022-07-29T01:30:24.896Z,16.66
2022-07-29T01:31:25.166Z,16.63
2022-07-29T01:32:28.773Z,16.60
2022-07-29T01:33:24.843Z,16.57
2022-07-29T01:34:24.844Z,16.57
2022-07-29T01:35:24.844Z,16.57
2022-07-29T01:36:24.851Z,16.57
2022-07-29T01:37:24.815Z,16.55
2022-07-29T01:38:24.792Z,16.55
2022-07-29T01:39:24.780Z,16.54
2022-07-29T01:40:24.772Z,16.54
2022-07-29T01:41:24.744Z,16.51
2022-07-29T01:42:24.749Z,16.51
2022-07-29T01:43:24.719Z,16.50
2022-07-29T01:44:24.702Z,16.48
2022-07-29T01:45:24.692Z,16.47
2022-07-29T01:46:24.716Z,16.47
2022-07-29T01:47:24.674Z,16.45
2022-07-29T01:48:24.642Z,16.42
2022-07-29T01:49:24.662Z,16.42
2022-07-29T01:50:24.622Z,16.42
2022-07-29T01:51:24.602Z,16.40
2022-07-29T01:52:24.623Z,16.40
2022-07-29T01:53:24.582Z,16.37
2022-07-29T01:54:24.573Z,16.40
2022-07-29T01:55:24.551Z,16.37
2022-07-29T01:56:24.542Z,16.36
2022-07-29T01:57:24.560Z,16.37
2022-07-29T01:58:24.544Z,16.40
2022-07-29T01:59:24.504Z,16.40
2022-07-29T02:00:24.495Z,16.41
2022-07-29T02:01:24.525Z,16.41
2022-07-29T02:02:24.472Z,16.42
2022-07-29T02:03:24.477Z,16.42
2022-07-29T02:04:28.948Z,16.42
2022-07-29T02:05:25.510Z,16.42
2022-07-29T02:06:24.412Z,16.44
2022-07-29T02:07:24.403Z,16.50
2022-07-29T02:08:24.399Z,16.52
2022-07-29T02:09:24.371Z,16.59
2022-07-29T02:10:26.002Z,16.62
2022-07-29T02:11:24.354Z,16.66
2022-07-29T02:12:24.366Z,16.67
2022-07-29T02:13:24.313Z,16.69
2022-07-29T02:14:24.303Z,16.70
2022-07-29T02:15:24.282Z,16.73
2022-07-29T02:16:24.329Z,16.73
2022-07-29T02:17:24.268Z,16.72
2022-07-29T02:18:24.244Z,16.70
2022-07-29T02:19:24.253Z,16.72
2022-07-29T02:20:24.225Z,16.70
2022-07-29T02:21:24.206Z,16.69
2022-07-29T02:22:24.210Z,16.67
2022-07-29T02:23:24.182Z,16.70
2022-07-29T02:24:24.163Z,16.72
2022-07-29T02:25:24.143Z,16.70
2022-07-29T02:26:24.152Z,16.69
2022-07-29T02:27:24.154Z,16.65
2022-07-29T02:28:24.119Z,16.62
2022-07-29T02:29:24.102Z,16.63
2022-07-29T02:30:24.072Z,16.60
2022-07-29T02:31:24.200Z,16.60
2022-07-29T02:32:24.062Z,16.55
2022-07-29T02:33:24.038Z,16.55
2022-07-29T02:34:24.062Z,16.54
2022-07-29T02:35:24.007Z,16.54
2022-07-29T02:36:23.993Z,16.52
2022-07-29T02:37:24.010Z,16.52
2022-07-29T02:38:23.991Z,16.52
2022-07-29T02:39:23.969Z,16.51
2022-07-29T02:40:23.961Z,16.48
2022-07-29T02:41:23.946Z,16.45
2022-07-29T02:42:23.940Z,16.45
2022-07-29T02:43:23.902Z,16.44
2022-07-29T02:44:23.894Z,16.42
2022-07-29T02:45:23.880Z,16.40
2022-07-29T02:46:29.197Z,16.41
2022-07-29T02:47:24.862Z,16.41
2022-07-29T02:48:23.840Z,16.40
2022-07-29T02:49:23.865Z,16.37
2022-07-29T02:50:23.811Z,16.40
2022-07-29T02:51:44.084Z,16.41
2022-07-29T02:52:24.792Z,16.47
2022-07-29T02:53:23.761Z,16.50
2022-07-29T02:54:23.775Z,16.50
2022-07-29T02:55:23.750Z,16.51
2022-07-29T02:56:23.740Z,16.50
2022-07-29T02:57:23.739Z,16.51
2022-07-29T02:58:23.737Z,16.52
2022-07-29T02:59:23.691Z,16.55
2022-07-29T03:00:23.684Z,16.55
2022-07-29T03:01:23.778Z,16.60
2022-07-29T03:02:23.660Z,16.62
2022-07-29T03:03:23.631Z,16.62
2022-07-29T03:04:23.695Z,16.62
2022-07-29T03:05:23.610Z,16.65
2022-07-29T03:06:28.150Z,16.66
2022-07-29T03:07:24.592Z,16.67
2022-07-29T03:08:23.590Z,16.67
2022-07-29T03:09:23.562Z,16.69
2022-07-29T03:10:23.542Z,16.67
2022-07-29T03:11:41.507Z,16.70
2022-07-29T03:12:24.531Z,16.72
2022-07-29T03:13:23.501Z,16.69
2022-07-29T03:14:23.500Z,16.67
2022-07-29T03:15:24.020Z,16.65
2022-07-29T03:16:23.533Z,16.63
2022-07-29T03:17:23.472Z,16.60
2022-07-29T03:18:23.441Z,16.60
2022-07-29T03:19:23.430Z,16.60
2022-07-29T03:20:23.420Z,16.57
2022-07-29T03:21:23.398Z,16.55
2022-07-29T03:22:23.389Z,16.54
2022-07-29T03:23:23.370Z,16.55
2022-07-29T03:24:23.362Z,16.55
2022-07-29T03:25:23.341Z,16.54
2022-07-29T03:26:23.351Z,16.52
2022-07-29T03:27:23.331Z,16.51
2022-07-29T03:28:23.300Z,16.51
2022-07-29T03:29:23.280Z,16.50
2022-07-29T03:30:23.303Z,16.52
2022-07-29T03:31:23.315Z,16.55
2022-07-29T03:32:24.039Z,16.54
2022-07-29T03:33:23.244Z,16.57
2022-07-29T03:34:23.514Z,16.59
2022-07-29T03:35:23.219Z,16.59
2022-07-29T03:36:23.208Z,16.59
2022-07-29T03:37:23.179Z,16.60
2022-07-29T03:38:23.188Z,16.62
2022-07-29T03:39:23.169Z,16.65
2022-07-29T03:40:23.152Z,16.66
2022-07-29T03:41:23.130Z,16.69
2022-07-29T03:42:23.111Z,16.70
2022-07-29T03:43:23.122Z,16.70
2022-07-29T03:44:23.107Z,16.73
2022-07-29T03:45:23.089Z,16.73
2022-07-29T03:46:23.125Z,16.78
2022-07-29T03:47:23.040Z,16.77
2022-07-29T03:48:24.040Z,16.77
2022-07-29T03:49:23.080Z,16.77
2022-07-29T03:50:23.030Z,16.78
2022-07-29T03:51:31.503Z,16.80
2022-07-29T03:52:24.000Z,16.82
2022-07-29T03:53:22.977Z,16.80
2022-07-29T03:54:22.950Z,16.80
2022-07-29T03:55:22.955Z,16.80
2022-07-29T03:56:22.930Z,16.80
2022-07-29T03:57:22.924Z,16.80
2022-07-29T03:58:22.915Z,16.81
2022-07-29T03:59:22.889Z,16.81
2022-07-29T04:00:22.880Z,16.81
2022-07-29T04:01:22.894Z,16.82
2022-07-29T04:02:26.199Z,16.82
2022-07-29T04:03:23.920Z,16.80
2022-07-29T04:04:22.818Z,16.82
2022-07-29T04:05:22.821Z,16.82
2022-07-29T04:06:22.789Z,16.82
2022-07-29T04:07:22.792Z,16.82
2022-07-29T04:08:22.768Z,16.82
2022-07-29T04:09:22.770Z,16.84
2022-07-29T04:10:28.308Z,16.82
2022-07-29T04:11:23.730Z,16.85
2022-07-29T04:12:22.710Z,16.81
2022-07-29T04:13:22.700Z,16.84
2022-07-29T04:14:22.688Z,16.84
2022-07-29T04:15:22.680Z,16.85
2022-07-29T04:16:22.745Z,16.84
2022-07-29T04:17:22.660Z,16.82
2022-07-29T04:18:22.659Z,16.82
2022-07-29T04:19:22.620Z,16.84
2022-07-29T04:20:22.633Z,16.82
2022-07-29T04:21:22.610Z,16.87
2022-07-29T04:22:22.580Z,16.87
2022-07-29T04:23:22.581Z,16.88
2022-07-29T04:24:22.549Z,16.87
2022-07-29T04:25:22.554Z,16.84
2022-07-29T04:26:22.518Z,16.82
2022-07-29T04:27:22.518Z,16.81
2022-07-29T04:28:22.500Z,16.78
2022-07-29T04:29:22.489Z,16.78
2022-07-29T04:30:22.508Z,16.78
2022-07-29T04:31:25.712Z,16.77
2022-07-29T04:32:22.439Z,16.78
2022-07-29T04:33:22.440Z,16.80
2022-07-29T04:34:22.421Z,16.82
2022-07-29T04:35:22.420Z,16.85
2022-07-29T04:36:28.720Z,16.85
2022-07-29T04:37:23.390Z,16.82
2022-07-29T04:38:22.370Z,16.85
2022-07-29T04:39:23.276Z,16.87
2022-07-29T04:40:22.350Z,16.88
2022-07-29T04:41:22.345Z,16.90
2022-07-29T04:42:25.238Z,16.95
2022-07-29T04:43:23.501Z,16.98
2022-07-29T04:44:22.289Z,16.98
2022-07-29T04:45:23.293Z,17.00
2022-07-29T04:46:22.340Z,17.02
2022-07-29T04:47:22.268Z,17.05
2022-07-29T04:48:28.189Z,17.07
2022-07-29T04:49:23.277Z,17.09
2022-07-29T04:50:22.209Z,17.12
2022-07-29T04:51:22.202Z,17.14
2022-07-29T04:52:22.191Z,17.18
2022-07-29T04:53:22.172Z,17.20
2022-07-29T04:54:22.159Z,17.21
2022-07-29T04:55:22.148Z,17.24
2022-07-29T04:56:22.129Z,17.28
2022-07-29T04:57:22.120Z,17.28
2022-07-29T04:58:22.108Z,17.32
2022-07-29T04:59:22.088Z,17.36
2022-07-29T05:00:22.087Z,17.39
2022-07-29T05:01:23.141Z,17.42
2022-07-29T05:02:22.076Z,17.46
2022-07-29T05:03:22.038Z,17.53
2022-07-29T05:04:22.017Z,17.55
2022-07-29T05:05:22.018Z,17.62
2022-07-29T05:06:21.989Z,17.68
2022-07-29T05:07:21.990Z,17.73
2022-07-29T05:08:21.986Z,17.77
2022-07-29T05:09:21.956Z,17.81
2022-07-29T05:10:21.949Z,17.86
2022-07-29T05:11:24.947Z,17.91
2022-07-29T05:12:22.911Z,17.98
2022-07-29T05:13:21.929Z,18.02
2022-07-29T05:14:21.924Z,18.10
2022-07-29T05:15:21.924Z,18.23
2022-07-29T05:16:21.924Z,18.36
2022-07-29T05:17:21.849Z,18.44
2022-07-29T05:18:21.829Z,18.49
2022-07-29T05:19:21.842Z,18.50
2022-07-29T05:20:21.817Z,18.53
2022-07-29T05:21:21.798Z,18.56
2022-07-29T05:22:21.804Z,18.59
2022-07-29T05:23:21.768Z,18.60
2022-07-29T05:24:21.760Z,18.62
2022-07-29T05:25:21.750Z,18.65
2022-07-29T05:26:21.747Z,18.68
2022-07-29T05:27:21.733Z,18.69
2022-07-29T05:28:21.711Z,18.71
2022-07-29T05:29:44.614Z,18.72
2022-07-29T05:30:22.671Z,18.74
2022-07-29T05:31:21.726Z,18.76
2022-07-29T05:32:21.639Z,18.78
2022-07-29T05:33:35.632Z,18.78
2022-07-29T05:34:22.628Z,18.78
2022-07-29T05:35:21.612Z,18.79
2022-07-29T05:36:21.591Z,18.82
2022-07-29T05:37:21.577Z,18.82
2022-07-29T05:38:21.567Z,18.82
2022-07-29T05:39:21.599Z,18.79
2022-07-29T05:40:21.599Z,18.82
2022-07-29T05:41:21.529Z,18.82
2022-07-29T05:42:21.508Z,18.83
2022-07-29T05:43:21.506Z,18.83
2022-07-29T05:44:21.501Z,18.83
2022-07-29T05:45:21.481Z,18.84
2022-07-29T05:46:21.525Z,18.84
2022-07-29T05:47:21.450Z,18.86
2022-07-29T05:48:21.450Z,18.86
2022-07-29T05:49:27.021Z,18.89
2022-07-29T05:50:22.399Z,18.91
2022-07-29T05:51:21.392Z,18.94
2022-07-29T05:52:21.370Z,18.97
2022-07-29T05:53:21.491Z,19.02
2022-07-29T05:54:21.360Z,19.05
2022-07-29T05:55:21.381Z,19.06
2022-07-29T05:56:21.326Z,19.09
2022-07-29T05:57:21.332Z,19.10
2022-07-29T05:58:21.288Z,19.10
2022-07-29T05:59:21.289Z,19.09
2022-07-29T06:00:21.269Z,19.10
2022-07-29T06:01:21.310Z,19.09
2022-07-29T06:02:21.238Z,19.12
2022-07-29T06:03:21.229Z,19.13
2022-07-29T06:04:21.488Z,19.16
2022-07-29T06:05:21.202Z,19.20
2022-07-29T06:06:21.183Z,19.23
2022-07-29T06:07:21.169Z,19.27
2022-07-29T06:08:21.172Z,19.30
2022-07-29T06:09:21.189Z,19.30
2022-07-29T06:10:23.912Z,19.32
2022-07-29T06:11:22.121Z,19.40
2022-07-29T06:12:21.108Z,19.45
2022-07-29T06:13:21.097Z,19.49
2022-07-29T06:14:21.092Z,19.55
2022-07-29T06:15:21.080Z,19.62
2022-07-29T06:16:30.261Z,19.94
2022-07-29T06:17:22.040Z,20.51
2022-07-29T06:18:21.019Z,21.11
2022-07-29T06:19:21.056Z,21.48
2022-07-29T06:20:26.984Z,21.61
2022-07-29T06:21:21.990Z,21.61
2022-07-29T06:22:20.969Z,21.53
2022-07-29T06:23:20.959Z,21.48
2022-07-29T06:24:21.032Z,21.42
2022-07-29T06:25:20.928Z,21.37
2022-07-29T06:26:30.727Z,21.36
2022-07-29T06:27:21.898Z,21.36
2022-07-29T06:28:20.888Z,21.24
2022-07-29T06:29:20.915Z,21.15
2022-07-29T06:30:20.868Z,21.11
2022-07-29T06:31:20.963Z,21.05
2022-07-29T06:32:20.860Z,21.00
2022-07-29T06:33:20.829Z,20.98
2022-07-29T06:34:20.868Z,20.94
2022-07-29T06:35:38.643Z,20.93
2022-07-29T06:36:22.941Z,20.93
2022-07-29T06:37:20.811Z,20.91
2022-07-29T06:38:30.460Z,20.91
2022-07-29T06:39:21.837Z,20.91
2022-07-29T06:40:20.730Z,20.91
2022-07-29T06:41:20.720Z,20.91
2022-07-29T06:42:20.699Z,20.90
2022-07-29T06:43:20.708Z,20.90
2022-07-29T06:44:20.789Z,20.93
2022-07-29T06:45:20.669Z,20.94
2022-07-29T06:46:20.812Z,20.98
2022-07-29T06:47:20.664Z,21.03
2022-07-29T06:48:20.641Z,21.09
2022-07-29T06:49:20.702Z,21.13
2022-07-29T06:50:20.599Z,21.16
2022-07-29T06:51:21.801Z,21.26
2022-07-29T06:52:20.579Z,21.49
2022-07-29T06:53:20.570Z,21.75
2022-07-29T06:54:20.547Z,21.94
2022-07-29T06:55:25.172Z,22.12
2022-07-29T06:56:20.519Z,22.36
2022-07-29T06:57:20.510Z,22.81
2022-07-29T06:58:20.501Z,23.04
2022-07-29T06:59:26.209Z,23.22
2022-07-29T07:00:21.517Z,23.41
2022-07-29T07:01:20.504Z,23.62
2022-07-29T07:02:20.496Z,23.74
2022-07-29T07:03:20.450Z,24.04
2022-07-29T07:04:20.950Z,24.52
2022-07-29T07:05:20.427Z,24.90
2022-07-29T07:06:20.389Z,24.93
2022-07-29T07:07:20.398Z,24.82
2022-07-29T07:08:20.381Z,24.63
2022-07-29T07:09:20.352Z,24.52
2022-07-29T07:10:20.334Z,24.41
2022-07-29T07:11:20.319Z,24.34
2022-07-29T07:12:20.321Z,24.31
2022-07-29T07:13:20.304Z,24.26
2022-07-29T07:14:21.068Z,24.18
2022-07-29T07:15:20.270Z,24.14
2022-07-29T07:16:20.279Z,24.11
2022-07-29T07:17:20.251Z,24.18
2022-07-29T07:18:20.236Z,24.23
2022-07-29T07:19:20.236Z,24.24
2022-07-29T07:20:20.224Z,24.16
2022-07-29T07:21:20.190Z,24.14
2022-07-29T07:22:20.191Z,24.06
2022-07-29T07:23:20.170Z,24.02
2022-07-29T07:24:20.161Z,23.94
2022-07-29T07:25:20.182Z,23.89
2022-07-29T07:26:20.129Z,23.93
2022-07-29T07:27:20.130Z,24.00
2022-07-29T07:28:24.918Z,24.04
2022-07-29T07:29:21.082Z,24.08
2022-07-29T07:30:20.079Z,24.14
2022-07-29T07:31:20.136Z,24.19
2022-07-29T07:32:20.139Z,24.21
2022-07-29T07:33:20.035Z,24.46
2022-07-29T07:34:29.504Z,25.07
2022-07-29T07:35:21.003Z,25.51
2022-07-29T07:36:19.984Z,26.01
2022-07-29T07:37:19.997Z,26.47
2022-07-29T07:38:19.986Z,26.83
2022-07-29T07:39:19.952Z,27.27
2022-07-29T07:40:19.946Z,27.43
2022-07-29T07:41:19.926Z,27.74
2022-07-29T07:42:19.962Z,27.98
2022-07-29T07:43:19.902Z,28.32
2022-07-29T07:44:20.393Z,28.38
2022-07-29T07:45:19.884Z,28.32
2022-07-29T07:46:19.886Z,28.21
2022-07-29T07:47:19.853Z,28.05
2022-07-29T07:48:19.834Z,28.01
2022-07-29T07:49:19.922Z,28.01
2022-07-29T07:50:19.807Z,28.08
2022-07-29T07:51:19.802Z,28.15
2022-07-29T07:52:19.805Z,28.25
2022-07-29T07:53:19.784Z,28.35
2022-07-29T07:54:20.825Z,28.40
2022-07-29T07:55:19.741Z,28.46
2022-07-29T07:56:19.734Z,28.55
2022-07-29T07:57:19.733Z,28.64
2022-07-29T07:58:19.711Z,28.74
2022-07-29T07:59:19.696Z,28.79
2022-07-29T08:00:19.673Z,28.95
2022-07-29T08:01:19.702Z,29.15
2022-07-29T08:02:19.797Z,29.21
2022-07-29T08:03:19.643Z,29.42
2022-07-29T08:04:25.000Z,29.79
2022-07-29T08:05:20.614Z,30.13
2022-07-29T08:06:19.595Z,30.51
2022-07-29T08:07:19.596Z,30.76
2022-07-29T08:08:19.597Z,30.98
2022-07-29T08:09:28.686Z,31.31
2022-07-29T08:10:20.563Z,31.65
2022-07-29T08:11:19.534Z,31.95
2022-07-29T08:12:19.533Z,32.25
2022-07-29T08:13:19.507Z,32.47
2022-07-29T08:14:19.686Z,32.63
2022-07-29T08:15:19.481Z,32.63
2022-07-29T08:16:19.487Z,32.72
2022-07-29T08:17:19.478Z,32.85
2022-07-29T08:18:19.436Z,33.07
2022-07-29T08:19:19.461Z,33.34
2022-07-29T08:20:19.512Z,33.59
2022-07-29T08:21:19.414Z,33.74
2022-07-29T08:22:19.408Z,33.68
2022-07-29T08:23:19.412Z,33.78
2022-07-29T08:24:19.361Z,33.78
2022-07-29T08:25:19.377Z,33.86
2022-07-29T08:26:19.368Z,33.84
2022-07-29T08:27:41.993Z,33.84
2022-07-29T08:28:20.369Z,33.94
2022-07-29T08:29:20.178Z,33.92
2022-07-29T08:30:19.350Z,33.82
2022-07-29T08:31:19.352Z,33.79
2022-07-29T08:32:43.523Z,33.92
2022-07-29T08:33:20.249Z,33.93
2022-07-29T08:34:19.256Z,33.96
2022-07-29T08:35:20.220Z,33.87
2022-07-29T08:36:19.219Z,33.78
2022-07-29T08:37:19.211Z,33.79
2022-07-29T08:38:19.209Z,33.84
2022-07-29T08:39:19.169Z,33.99
2022-07-29T08:40:19.182Z,34.06
2022-07-29T08:41:19.139Z,33.99
2022-07-29T08:42:19.147Z,33.93
2022-07-29T08:43:19.141Z,33.96
2022-07-29T08:44:22.440Z,34.06
2022-07-29T08:45:20.095Z,34.27
2022-07-29T08:46:19.172Z,34.42
2022-07-29T08:47:19.083Z,34.55
2022-07-29T08:48:19.065Z,34.69
2022-07-29T08:49:19.101Z,34.71
2022-07-29T08:50:19.075Z,34.65
2022-07-29T08:51:19.042Z,34.60
2022-07-29T08:52:19.015Z,34.61
2022-07-29T08:53:18.997Z,34.60
2022-07-29T08:54:18.976Z,34.50
2022-07-29T08:55:21.403Z,34.38
2022-07-29T08:56:19.053Z,34.15
2022-07-29T08:57:18.984Z,33.99
2022-07-29T08:58:23.089Z,33.77
2022-07-29T08:59:18.922Z,33.60
2022-07-29T09:00:18.956Z,33.50
2022-07-29T09:01:18.931Z,33.37
2022-07-29T09:02:18.885Z,33.33
2022-07-29T09:03:18.957Z,33.28
2022-07-29T09:04:18.854Z,32.99
2022-07-29T09:05:18.842Z,32.73
2022-07-29T09:06:18.828Z,32.58
2022-07-29T09:07:18.815Z,32.58
2022-07-29T09:08:18.800Z,32.54
2022-07-29T09:09:18.785Z,32.50
2022-07-29T09:10:18.788Z,32.53
2022-07-29T09:11:18.769Z,32.59
2022-07-29T09:12:29.036Z,32.77
2022-07-29T09:13:19.738Z,32.87
2022-07-29T09:14:18.729Z,32.96
2022-07-29T09:15:18.710Z,33.05
2022-07-29T09:16:37.206Z,32.96
2022-07-29T09:17:19.696Z,32.96
2022-07-29T09:18:20.480Z,32.90
2022-07-29T09:19:19.659Z,32.68
2022-07-29T09:20:18.734Z,32.44
2022-07-29T09:21:18.662Z,32.19
2022-07-29T09:22:18.618Z,31.94
2022-07-29T09:23:23.448Z,31.79
2022-07-29T09:24:19.679Z,31.74
2022-07-29T09:25:18.578Z,31.69
2022-07-29T09:26:18.579Z,31.62
2022-07-29T09:27:18.561Z,31.60
2022-07-29T09:28:18.542Z,31.64
2022-07-29T09:29:18.573Z,31.68
2022-07-29T09:30:25.544Z,31.78
2022-07-29T09:31:19.592Z,31.75
2022-07-29T09:32:18.489Z,31.67
2022-07-29T09:33:18.485Z,31.53
2022-07-29T09:34:18.477Z,31.53
2022-07-29T09:35:18.444Z,31.57
2022-07-29T09:36:18.453Z,31.62
2022-07-29T09:37:18.424Z,31.71
2022-07-29T09:38:18.413Z,31.71
2022-07-29T09:39:18.411Z,31.74
2022-07-29T09:40:18.402Z,31.82
2022-07-29T09:41:18.425Z,31.85
2022-07-29T09:42:18.363Z,31.84
2022-07-29T09:43:18.355Z,31.76
2022-07-29T09:44:18.351Z,31.67
2022-07-29T09:45:18.321Z,31.53
2022-07-29T09:46:18.397Z,31.40
2022-07-29T09:47:18.311Z,31.30
2022-07-29T09:48:18.284Z,31.16
2022-07-29T09:49:18.531Z,31.05
2022-07-29T09:50:18.276Z,30.96
2022-07-29T09:51:20.565Z,30.98
2022-07-29T09:52:18.227Z,31.00
2022-07-29T09:53:18.209Z,31.03
2022-07-29T09:54:18.242Z,31.07
2022-07-29T09:55:18.567Z,31.19
2022-07-29T09:56:18.176Z,31.35
2022-07-29T09:57:18.195Z,31.54
2022-07-29T09:58:18.146Z,31.68
2022-07-29T09:59:18.137Z,31.76
2022-07-29T10:00:18.142Z,31.79
2022-07-29T10:01:18.150Z,31.76
2022-07-29T10:02:23.571Z,31.71
2022-07-29T10:03:19.143Z,31.41
2022-07-29T10:04:18.079Z,31.19
2022-07-29T10:05:18.079Z,31.07
2022-07-29T10:06:18.047Z,31.15
2022-07-29T10:07:18.029Z,31.16
2022-07-29T10:08:18.052Z,31.15
2022-07-29T10:09:18.021Z,31.20
2022-07-29T10:10:18.029Z,31.32
2022-07-29T10:11:17.981Z,31.34
2022-07-29T10:12:17.969Z,31.41
2022-07-29T10:13:17.958Z,31.50
2022-07-29T10:14:17.939Z,31.56
2022-07-29T10:15:17.976Z,31.65
2022-07-29T10:16:17.979Z,31.79
2022-07-29T10:17:17.900Z,31.88
2022-07-29T10:18:17.995Z,31.97
2022-07-29T10:19:17.893Z,32.06
2022-07-29T10:20:17.927Z,32.07
2022-07-29T10:21:22.588Z,32.05
2022-07-29T10:22:36.911Z,31.99
2022-07-29T10:23:18.822Z,32.02
2022-07-29T10:24:17.867Z,32.06
2022-07-29T10:25:17.813Z,32.12
2022-07-29T10:26:17.812Z,32.19
2022-07-29T10:27:17.771Z,32.16
2022-07-29T10:28:17.762Z,32.10
2022-07-29T10:29:17.763Z,32.05
2022-07-29T10:30:17.748Z,32.03
2022-07-29T10:31:17.760Z,32.05
2022-07-29T10:32:17.713Z,32.09
2022-07-29T10:33:17.705Z,31.98
2022-07-29T10:34:17.899Z,31.91
2022-07-29T10:35:17.673Z,31.82
2022-07-29T10:36:18.618Z,31.76
2022-07-29T10:37:17.641Z,31.78
2022-07-29T10:38:17.634Z,31.78
2022-07-29T10:39:17.636Z,31.90
2022-07-29T10:40:17.611Z,31.99
2022-07-29T10:41:19.581Z,32.09
2022-07-29T10:42:20.107Z,32.10
2022-07-29T10:43:18.571Z,32.16
2022-07-29T10:44:19.341Z,32.27
2022-07-29T10:45:17.562Z,32.32
2022-07-29T10:46:17.592Z,32.31
2022-07-29T10:47:17.514Z,32.29
2022-07-29T10:48:17.502Z,32.34
2022-07-29T10:49:17.576Z,32.36
2022-07-29T10:50:17.594Z,32.44
2022-07-29T10:51:18.064Z,32.58
2022-07-29T10:52:17.455Z,32.71
2022-07-29T10:53:17.445Z,32.80
2022-07-29T10:54:17.447Z,32.81
2022-07-29T10:55:17.406Z,32.88
2022-07-29T10:56:17.487Z,32.96
2022-07-29T10:57:17.413Z,33.02
2022-07-29T10:58:17.951Z,33.09
2022-07-29T10:59:17.367Z,33.18
2022-07-29T11:00:17.387Z,33.21
2022-07-29T11:01:17.336Z,33.17
2022-07-29T11:02:41.531Z,33.14
2022-07-29T11:03:18.335Z,33.18
2022-07-29T11:04:17.307Z,33.21
2022-07-29T11:05:17.286Z,33.09
2022-07-29T11:06:17.278Z,33.00
2022-07-29T11:07:17.335Z,32.87
2022-07-29T11:08:20.331Z,32.81
2022-07-29T11:09:17.240Z,32.83
2022-07-29T11:10:17.229Z,32.90
2022-07-29T11:11:17.529Z,32.95
2022-07-29T11:12:17.202Z,32.98
2022-07-29T11:13:17.231Z,32.95
2022-07-29T11:14:17.193Z,32.90
2022-07-29T11:15:17.158Z,32.91
2022-07-29T11:16:17.149Z,32.88
2022-07-29T11:17:17.130Z,32.84
2022-07-29T11:18:17.451Z,32.91
2022-07-29T11:19:26.298Z,32.98
2022-07-29T11:20:18.101Z,33.07
2022-07-29T11:21:17.079Z,33.18
2022-07-29T11:22:18.080Z,33.22
2022-07-29T11:23:17.058Z,33.37
2022-07-29T11:24:28.528Z,33.50
2022-07-29T11:25:18.031Z,33.60
2022-07-29T11:26:18.611Z,33.65
2022-07-29T11:27:19.907Z,33.71
2022-07-29T11:28:22.879Z,33.75
2022-07-29T11:29:18.004Z,33.78
2022-07-29T11:30:16.970Z,33.92
2022-07-29T11:31:16.959Z,33.99
2022-07-29T11:32:18.412Z,33.96
2022-07-29T11:33:17.932Z,33.99
2022-07-29T11:34:17.981Z,34.11
2022-07-29T11:35:18.606Z,34.26
2022-07-29T11:36:17.144Z,34.30
2022-07-29T11:38:17.872Z,34.19
2022-07-29T11:39:16.889Z,34.18
2022-07-29T11:40:16.844Z,34.08
2022-07-29T11:41:16.833Z,33.97
2022-07-29T11:42:16.814Z,33.94
2022-07-29T11:43:16.813Z,33.92
2022-07-29T11:44:18.056Z,33.87
2022-07-29T11:45:42.848Z,33.86
2022-07-29T11:46:17.801Z,33.94
2022-07-29T11:47:17.769Z,33.82
2022-07-29T11:48:28.864Z,33.78
2022-07-29T11:49:17.760Z,33.81
2022-07-29T11:50:17.728Z,33.78
2022-07-29T11:51:16.715Z,33.77
2022-07-29T11:52:16.745Z,33.86
2022-07-29T11:53:16.726Z,33.94
2022-07-29T11:54:16.671Z,34.05
2022-07-29T11:55:16.655Z,33.96
2022-07-29T11:56:17.149Z,33.92
2022-07-29T11:57:16.626Z,33.94
2022-07-29T11:58:16.662Z,34.03
2022-07-29T11:59:16.607Z,34.01
2022-07-29T12:00:18.725Z,33.99
2022-07-29T12:01:16.567Z,33.94
2022-07-29T12:02:37.540Z,33.97
2022-07-29T12:03:17.565Z,33.97
2022-07-29T12:04:16.547Z,33.97
2022-07-29T12:05:22.221Z,34.00
2022-07-29T12:06:18.542Z,34.05
2022-07-29T12:07:16.518Z,34.09
2022-07-29T12:08:16.507Z,34.18
2022-07-29T12:09:16.487Z,34.26
2022-07-29T12:10:19.886Z,34.27
2022-07-29T12:11:17.457Z,34.31
2022-07-29T12:12:16.453Z,34.31
2022-07-29T12:13:16.443Z,34.34
2022-07-29T12:14:16.420Z,34.24
2022-07-29T12:15:16.399Z,34.08
2022-07-29T12:16:16.485Z,34.03
2022-07-29T12:17:17.376Z,33.99
2022-07-29T12:18:16.429Z,33.97
2022-07-29T12:19:16.368Z,33.96
2022-07-29T12:20:16.350Z,34.01
2022-07-29T12:21:16.321Z,34.16
2022-07-29T12:22:16.319Z,34.30
2022-07-29T12:23:16.352Z,34.45
2022-07-29T12:24:16.330Z,34.58
2022-07-29T12:25:32.278Z,34.71
2022-07-29T12:26:21.959Z,34.83
2022-07-29T12:27:17.254Z,34.91
2022-07-29T12:28:16.261Z,35.00
2022-07-29T12:29:19.968Z,35.07
2022-07-29T12:30:17.457Z,35.02
2022-07-29T12:31:43.734Z,34.86
2022-07-29T12:32:19.775Z,34.63
2022-07-29T12:33:16.184Z,34.49
2022-07-29T12:34:16.165Z,34.45
2022-07-29T12:35:16.154Z,34.36
2022-07-29T12:36:17.892Z,34.30
2022-07-29T12:37:16.137Z,34.27
2022-07-29T12:38:16.132Z,34.42
2022-07-29T12:39:16.111Z,34.49
2022-07-29T12:40:16.113Z,34.38
2022-07-29T12:41:16.074Z,34.15
2022-07-29T12:42:18.698Z,33.72
2022-07-29T12:43:16.070Z,33.31
2022-07-29T12:44:16.066Z,33.17
2022-07-29T12:45:16.047Z,33.28
2022-07-29T12:46:16.154Z,33.43
2022-07-29T12:47:16.004Z,33.55
2022-07-29T12:48:15.994Z,33.59
2022-07-29T12:49:16.038Z,33.68
2022-07-29T12:50:15.967Z,33.70
2022-07-29T12:51:15.954Z,33.77
2022-07-29T12:52:15.936Z,33.81
2022-07-29T12:53:15.947Z,33.74